createdAt,value
2023-03-29T00:01:45.824Z,48659.84
2023-03-29T00:04:13.945Z,48636.34
2023-03-29T00:06:42.137Z,48652.00
2023-03-29T00:09:10.013Z,48648.09
2023-03-29T00:11:36.628Z,48655.94
2023-03-29T00:14:03.090Z,48652.00
2023-03-29T00:16:29.998Z,48675.50
2023-03-29T00:18:57.171Z,48661.81
2023-03-29T00:21:23.652Z,48636.34
2023-03-29T00:23:50.225Z,48653.97
2023-03-29T00:26:16.708Z,48667.69
2023-03-29T00:28:43.245Z,48648.09
2023-03-29T00:31:12.688Z,48644.16
2023-03-29T00:33:39.326Z,48634.38
2023-03-29T00:36:07.351Z,48636.34
2023-03-29T00:38:34.363Z,48655.94
2023-03-29T00:41:01.368Z,48642.22
2023-03-29T00:43:27.983Z,48648.09
2023-03-29T00:45:54.777Z,48667.69
2023-03-29T00:48:25.780Z,48648.09
2023-03-29T00:50:55.674Z,48667.69
2023-03-29T00:53:48.543Z,48673.56
2023-03-29T00:56:35.284Z,48652.00
2023-03-29T00:59:05.057Z,48659.84
2023-03-29T01:01:45.483Z,48652.00
2023-03-29T01:04:20.567Z,48652.00
2023-03-29T01:06:57.037Z,48628.50
2023-03-29T01:09:27.058Z,48652.00
2023-03-29T01:11:57.448Z,48648.09
2023-03-29T01:14:42.824Z,48620.66
2023-03-29T01:17:09.409Z,48661.81
2023-03-29T01:19:43.960Z,48632.41
2023-03-29T01:22:28.468Z,48667.69
2023-03-29T01:25:16.666Z,48653.97
2023-03-29T01:28:02.519Z,48644.16
2023-03-29T01:30:34.572Z,48663.75
2023-03-29T01:33:15.566Z,48644.16
2023-03-29T01:35:46.505Z,48646.13
2023-03-29T01:38:23.686Z,48640.25
2023-03-29T01:40:50.314Z,48667.69
2023-03-29T01:43:39.529Z,48632.41
2023-03-29T01:46:25.158Z,48652.00
2023-03-29T01:48:59.200Z,48640.25
2023-03-29T01:51:38.633Z,48663.75
2023-03-29T01:54:12.834Z,48665.72
2023-03-29T01:56:43.775Z,48655.94
2023-03-29T01:59:18.057Z,48652.00
2023-03-29T02:01:50.231Z,48640.25
2023-03-29T02:04:22.724Z,48655.94
2023-03-29T02:06:54.260Z,48659.84
2023-03-29T02:09:21.840Z,48667.69
2023-03-29T02:11:51.086Z,48663.75
2023-03-29T02:14:17.948Z,48663.75
2023-03-29T02:16:46.193Z,48659.84
2023-03-29T02:19:14.055Z,48659.84
2023-03-29T02:21:51.745Z,48659.84
2023-03-29T02:24:22.043Z,48655.94
2023-03-29T02:26:49.227Z,48675.50
2023-03-29T02:29:16.292Z,48671.59
2023-03-29T02:31:47.699Z,48640.25
2023-03-29T02:34:19.680Z,48640.25
2023-03-29T02:36:50.511Z,48659.84
2023-03-29T02:39:18.402Z,48644.16
2023-03-29T02:41:49.205Z,48667.69
2023-03-29T02:44:20.389Z,48655.94
2023-03-29T02:46:55.541Z,48663.75
2023-03-29T02:49:22.912Z,48659.84
2023-03-29T02:51:53.594Z,48687.28
2023-03-29T02:54:25.808Z,48667.69
2023-03-29T02:56:57.728Z,48685.31
2023-03-29T02:59:24.287Z,48669.63
2023-03-29T03:01:52.485Z,48687.28
2023-03-29T03:04:20.709Z,48691.19
2023-03-29T03:06:47.631Z,48687.28
2023-03-29T03:09:14.648Z,48663.75
2023-03-29T03:11:41.091Z,48679.44
2023-03-29T03:14:07.563Z,48685.31
2023-03-29T03:16:34.503Z,48702.94
2023-03-29T03:19:01.373Z,48695.09
2023-03-29T03:21:28.197Z,48708.81
2023-03-29T03:23:55.748Z,48708.81
2023-03-29T03:26:24.801Z,48702.94
2023-03-29T03:28:51.587Z,48695.09
2023-03-29T03:31:19.474Z,48714.69
2023-03-29T03:33:45.938Z,48714.69
2023-03-29T03:36:13.889Z,48753.88
2023-03-29T03:38:41.228Z,48746.03
2023-03-29T03:41:08.079Z,48763.66
2023-03-29T03:43:35.332Z,48765.63
2023-03-29T03:46:02.173Z,48777.38
2023-03-29T03:48:29.053Z,48836.16
2023-03-29T03:50:58.113Z,48844.00
2023-03-29T03:53:27.180Z,48855.75
2023-03-29T03:55:57.977Z,48902.75
2023-03-29T03:58:24.515Z,48914.50
2023-03-29T04:00:51.383Z,48949.78
2023-03-29T04:03:18.453Z,48938.03
2023-03-29T04:05:46.178Z,48945.84
2023-03-29T04:08:14.767Z,48922.34
2023-03-29T04:10:41.614Z,48949.78
2023-03-29T04:13:08.315Z,48926.25
2023-03-29T04:15:38.733Z,48985.03
2023-03-29T04:18:07.220Z,48953.69
2023-03-29T04:20:34.659Z,48957.59
2023-03-29T04:23:01.573Z,48985.03
2023-03-29T04:25:28.418Z,48977.19
2023-03-29T04:27:55.150Z,48971.31
2023-03-29T04:30:21.805Z,48973.28
2023-03-29T04:32:48.723Z,48985.03
2023-03-29T04:35:15.243Z,48988.94
2023-03-29T04:37:41.881Z,48953.69
2023-03-29T04:40:10.074Z,48973.28
2023-03-29T04:42:37.386Z,48957.59
2023-03-29T04:45:04.613Z,48965.44
2023-03-29T04:47:31.193Z,48951.72
2023-03-29T04:49:57.973Z,49002.66
2023-03-29T04:52:24.706Z,48963.50
2023-03-29T04:54:51.165Z,48969.38
2023-03-29T04:57:17.563Z,48977.19
2023-03-29T04:59:44.025Z,48945.84
2023-03-29T05:02:10.574Z,48973.28
2023-03-29T05:04:37.086Z,48949.78
2023-03-29T05:07:04.479Z,48977.19
2023-03-29T05:09:32.505Z,48965.44
2023-03-29T05:12:00.248Z,48967.41
2023-03-29T05:14:26.705Z,48959.56
2023-03-29T05:16:53.115Z,48985.03
2023-03-29T05:19:21.810Z,48967.41
2023-03-29T05:21:50.212Z,48961.53
2023-03-29T05:24:17.620Z,48959.56
2023-03-29T05:26:44.735Z,48981.13
2023-03-29T05:29:12.189Z,48953.69
2023-03-29T05:31:39.199Z,48969.38
2023-03-29T05:34:06.974Z,48953.69
2023-03-29T05:36:33.635Z,48971.31
2023-03-29T05:39:00.081Z,48953.69
2023-03-29T05:41:26.546Z,48965.44
2023-03-29T05:43:53.044Z,48961.53
2023-03-29T05:46:19.587Z,48977.19
2023-03-29T05:48:46.381Z,48967.41
2023-03-29T05:51:13.031Z,48953.69
2023-03-29T05:53:39.401Z,48949.78
2023-03-29T05:56:08.642Z,48965.44
2023-03-29T05:58:36.288Z,48965.44
2023-03-29T06:01:04.327Z,48957.59
2023-03-29T06:03:30.948Z,48961.53
2023-03-29T06:06:00.870Z,48957.59
2023-03-29T06:08:28.501Z,48951.72
2023-03-29T06:11:03.076Z,48969.38
2023-03-29T06:13:33.429Z,48949.78
2023-03-29T06:16:00.888Z,48953.69
2023-03-29T06:18:27.676Z,48959.56
2023-03-29T06:20:54.709Z,48945.84
2023-03-29T06:23:22.167Z,48945.84
2023-03-29T06:25:51.248Z,48957.59
2023-03-29T06:28:19.079Z,48945.84
2023-03-29T06:30:46.334Z,48981.13
2023-03-29T06:33:14.172Z,48957.59
2023-03-29T06:35:46.896Z,48941.94
2023-03-29T06:38:14.952Z,48949.78
2023-03-29T06:40:43.201Z,48951.72
2023-03-29T06:43:10.173Z,48965.44
2023-03-29T06:45:37.836Z,48945.84
2023-03-29T06:48:05.868Z,48945.84
2023-03-29T06:50:32.928Z,48938.03
2023-03-29T06:52:59.303Z,48947.81
2023-03-29T06:55:27.068Z,48955.66
2023-03-29T06:57:54.194Z,48934.09
2023-03-29T07:00:28.119Z,48938.03
2023-03-29T07:02:57.981Z,48943.91
2023-03-29T07:05:27.180Z,48943.91
2023-03-29T07:07:59.779Z,48949.78
2023-03-29T07:10:32.140Z,48939.97
2023-03-29T07:13:01.048Z,48928.22
2023-03-29T07:15:28.675Z,48939.97
2023-03-29T07:17:56.227Z,48943.91
2023-03-29T07:20:23.155Z,48941.94
2023-03-29T07:22:52.942Z,48936.06
2023-03-29T07:25:24.972Z,48943.91
2023-03-29T07:27:54.623Z,48934.09
2023-03-29T07:30:24.429Z,48926.25
2023-03-29T07:32:52.353Z,48934.09
2023-03-29T07:35:18.825Z,48930.19
2023-03-29T07:37:46.421Z,48928.22
2023-03-29T07:40:24.531Z,48953.69
2023-03-29T07:42:54.389Z,48918.44
2023-03-29T07:45:26.797Z,48930.19
2023-03-29T07:47:57.705Z,48941.94
2023-03-29T07:50:24.843Z,48955.66
2023-03-29T07:52:51.366Z,48939.97
2023-03-29T07:55:18.129Z,48941.94
2023-03-29T07:57:44.690Z,48938.03
2023-03-29T08:00:16.333Z,48939.97
2023-03-29T08:02:44.683Z,48957.59
2023-03-29T08:05:12.930Z,48938.03
2023-03-29T08:07:41.353Z,48949.78
2023-03-29T08:10:21.791Z,48943.91
2023-03-29T08:12:49.810Z,48941.94
2023-03-29T08:15:16.538Z,48926.25
2023-03-29T08:17:43.623Z,48938.03
2023-03-29T08:20:13.292Z,48947.81
2023-03-29T08:22:40.495Z,48939.97
2023-03-29T08:25:08.102Z,48938.03
2023-03-29T08:27:35.493Z,48947.81
2023-03-29T08:30:01.912Z,48934.09
2023-03-29T08:32:28.680Z,48934.09
2023-03-29T08:34:55.207Z,48926.25
2023-03-29T08:37:21.852Z,48945.84
2023-03-29T08:39:48.487Z,48934.09
2023-03-29T08:42:42.766Z,48949.78
2023-03-29T08:45:13.377Z,48949.78
2023-03-29T08:48:02.299Z,48953.69
2023-03-29T08:50:38.417Z,48941.94
2023-03-29T08:53:13.208Z,48949.78
2023-03-29T08:55:45.677Z,48953.69
2023-03-29T08:58:20.459Z,48945.84
2023-03-29T09:00:50.820Z,48941.94
2023-03-29T09:03:26.166Z,48947.81
2023-03-29T09:06:06.615Z,48934.09
2023-03-29T09:08:38.240Z,48934.09
2023-03-29T09:11:35.549Z,48955.66
2023-03-29T09:14:24.779Z,48953.69
2023-03-29T09:17:18.827Z,48973.28
2023-03-29T09:20:04.422Z,48945.84
2023-03-29T09:22:54.501Z,48953.69
2023-03-29T09:25:52.545Z,48938.03
2023-03-29T09:28:43.366Z,48969.38
2023-03-29T09:31:21.574Z,48955.66
2023-03-29T09:34:01.959Z,48969.38
2023-03-29T09:36:43.499Z,48965.44
2023-03-29T09:39:14.371Z,48957.59
2023-03-29T09:41:50.580Z,48969.38
2023-03-29T09:44:30.956Z,48961.53
2023-03-29T09:47:19.363Z,48969.38
2023-03-29T09:49:49.231Z,48977.19
2023-03-29T09:52:17.259Z,48963.50
2023-03-29T09:54:44.508Z,48965.44
2023-03-29T09:57:17.985Z,48977.19
2023-03-29T09:59:46.720Z,48983.06
2023-03-29T10:02:14.033Z,48977.19
2023-03-29T10:04:42.891Z,48977.19
2023-03-29T10:07:18.171Z,48973.28
2023-03-29T10:09:46.479Z,48977.19
2023-03-29T10:12:13.695Z,48981.13
2023-03-29T10:14:46.407Z,48988.94
2023-03-29T10:17:21.729Z,48971.31
2023-03-29T10:20:00.359Z,48965.44
2023-03-29T10:22:37.830Z,48988.94
2023-03-29T10:25:09.326Z,48988.94
2023-03-29T10:27:36.109Z,48977.19
2023-03-29T10:30:12.906Z,48988.94
2023-03-29T10:32:40.586Z,48977.19
2023-03-29T10:35:19.075Z,48996.78
2023-03-29T10:37:50.357Z,48977.19
2023-03-29T10:40:25.695Z,48981.13
2023-03-29T10:42:53.938Z,48985.03
2023-03-29T10:45:35.551Z,48983.06
2023-03-29T10:48:06.821Z,48977.19
2023-03-29T10:50:36.188Z,48990.91
2023-03-29T10:53:04.145Z,48988.94
2023-03-29T10:55:37.253Z,48973.28
2023-03-29T10:58:23.604Z,48973.28
2023-03-29T11:00:56.288Z,48992.88
2023-03-29T11:03:40.308Z,49004.63
2023-03-29T11:06:22.351Z,49004.63
2023-03-29T11:08:59.240Z,48981.13
2023-03-29T11:11:49.305Z,48988.94
2023-03-29T11:14:36.055Z,49012.47
2023-03-29T11:17:21.458Z,48985.03
2023-03-29T11:20:05.373Z,48987.00
2023-03-29T11:22:49.377Z,48996.78
2023-03-29T11:26:02.504Z,49016.38
2023-03-29T11:28:54.543Z,48988.94
2023-03-29T11:31:27.761Z,49012.47
2023-03-29T11:34:31.610Z,49000.72
2023-03-29T11:37:36.412Z,49004.63
2023-03-29T11:40:06.939Z,48985.03
2023-03-29T11:42:38.325Z,49039.88
2023-03-29T11:45:06.069Z,49039.88
2023-03-29T11:47:36.611Z,49012.47
2023-03-29T11:50:25.455Z,49026.19
2023-03-29T11:52:58.800Z,49000.72
2023-03-29T11:55:27.929Z,49012.47
2023-03-29T11:58:17.520Z,49010.50
2023-03-29T12:00:58.087Z,49039.88
2023-03-29T12:03:47.306Z,49026.19
2023-03-29T12:06:32.445Z,49016.38
2023-03-29T12:09:16.715Z,48990.91
2023-03-29T12:11:52.949Z,49039.88
2023-03-29T12:14:39.015Z,48988.94
2023-03-29T12:17:12.508Z,49020.31
2023-03-29T12:19:47.409Z,48981.13
2023-03-29T12:22:13.789Z,49020.31
2023-03-29T12:24:42.991Z,49032.06
2023-03-29T12:27:19.814Z,49012.47
2023-03-29T12:30:18.559Z,49016.38
2023-03-29T12:33:15.298Z,48988.94
2023-03-29T12:36:04.493Z,48985.03
2023-03-29T12:38:32.822Z,49034.00
2023-03-29T12:41:02.289Z,49022.25
2023-03-29T12:43:37.653Z,49004.63
2023-03-29T12:46:10.049Z,49012.47
2023-03-29T12:48:39.356Z,48987.00
2023-03-29T12:51:14.462Z,49012.47
2023-03-29T12:53:45.069Z,49024.22
2023-03-29T12:56:19.575Z,49004.63
2023-03-29T12:59:07.040Z,49020.31
2023-03-29T13:01:41.347Z,49024.22
2023-03-29T13:04:18.437Z,48977.19
2023-03-29T13:07:03.381Z,49020.31
2023-03-29T13:09:31.201Z,49028.13
2023-03-29T13:12:09.642Z,49004.63
2023-03-29T13:14:42.557Z,49012.47
2023-03-29T13:17:20.143Z,49008.53
2023-03-29T13:19:52.554Z,49014.41
2023-03-29T13:22:44.214Z,49012.47
2023-03-29T13:25:32.535Z,49004.63
2023-03-29T13:28:24.094Z,48985.03
2023-03-29T13:31:18.865Z,49000.72
2023-03-29T13:34:02.109Z,49016.38
2023-03-29T13:36:53.597Z,48979.16
2023-03-29T13:39:24.438Z,49024.22
2023-03-29T13:41:53.463Z,49047.72
2023-03-29T13:44:22.888Z,49012.47
2023-03-29T13:47:16.454Z,48977.19
2023-03-29T13:49:50.384Z,48979.16
2023-03-29T13:52:26.769Z,48985.03
2023-03-29T13:55:04.099Z,48981.13
2023-03-29T13:57:39.494Z,48988.94
2023-03-29T14:00:36.787Z,48981.13
2023-03-29T14:03:09.441Z,49004.63
2023-03-29T14:05:39.757Z,48959.56
2023-03-29T14:08:25.381Z,48987.00
2023-03-29T14:10:53.567Z,48951.72
2023-03-29T14:13:23.922Z,48973.28
2023-03-29T14:15:55.189Z,48965.44
2023-03-29T14:18:25.507Z,48985.03
2023-03-29T14:20:55.053Z,48953.69
2023-03-29T14:23:24.462Z,48957.59
2023-03-29T14:25:51.134Z,48957.59
2023-03-29T14:28:29.023Z,48977.19
2023-03-29T14:30:56.238Z,48981.13
2023-03-29T14:33:27.939Z,48920.38
2023-03-29T14:36:00.131Z,48941.94
2023-03-29T14:38:27.390Z,48985.03
2023-03-29T14:40:58.616Z,48973.28
2023-03-29T14:43:29.773Z,48971.31
2023-03-29T14:45:57.338Z,48934.09
2023-03-29T14:48:24.899Z,48973.28
2023-03-29T14:50:51.667Z,48961.53
2023-03-29T14:53:23.377Z,48949.78
2023-03-29T14:55:52.432Z,48945.84
2023-03-29T14:58:32.695Z,48947.81
2023-03-29T15:01:14.746Z,48945.84
2023-03-29T15:03:54.192Z,48975.25
2023-03-29T15:06:22.910Z,48977.19
2023-03-29T15:09:03.621Z,48926.25
2023-03-29T15:11:32.890Z,48945.84
2023-03-29T15:14:08.546Z,48916.47
2023-03-29T15:16:40.478Z,48953.69
2023-03-29T15:19:07.204Z,48945.84
2023-03-29T15:21:35.657Z,48945.84
2023-03-29T15:24:03.999Z,48928.22
2023-03-29T15:26:33.953Z,48955.66
2023-03-29T15:29:09.157Z,48930.19
2023-03-29T15:31:38.582Z,48934.09
2023-03-29T15:34:13.315Z,48930.19
2023-03-29T15:36:42.533Z,48924.31
2023-03-29T15:39:13.119Z,48949.78
2023-03-29T15:41:40.468Z,48920.38
2023-03-29T15:44:07.160Z,48922.34
2023-03-29T15:46:33.793Z,48938.03
2023-03-29T15:49:00.394Z,48910.59
2023-03-29T15:51:26.988Z,48914.50
2023-03-29T15:53:53.382Z,48910.59
2023-03-29T15:56:23.249Z,48859.66
2023-03-29T15:58:49.861Z,48857.69
2023-03-29T16:01:33.634Z,48906.69
2023-03-29T16:04:01.832Z,48867.50
2023-03-29T16:06:28.564Z,48879.25
2023-03-29T16:08:57.238Z,48865.53
2023-03-29T16:11:24.200Z,48898.84
2023-03-29T16:13:51.359Z,48887.09
2023-03-29T16:16:18.114Z,48887.09
2023-03-29T16:18:44.635Z,48894.91
2023-03-29T16:21:14.233Z,48887.09
2023-03-29T16:23:41.662Z,48898.84
2023-03-29T16:26:09.233Z,48847.91
2023-03-29T16:28:36.895Z,48910.59
2023-03-29T16:31:04.759Z,48898.84
2023-03-29T16:33:31.145Z,48883.16
2023-03-29T16:35:57.578Z,48904.72
2023-03-29T16:38:24.360Z,48926.25
2023-03-29T16:40:50.793Z,48879.25
2023-03-29T16:43:18.601Z,48914.50
2023-03-29T16:45:45.399Z,48906.69
2023-03-29T16:48:17.960Z,48902.75
2023-03-29T16:50:45.286Z,48914.50
2023-03-29T16:53:11.722Z,48902.75
2023-03-29T16:55:38.168Z,48949.78
2023-03-29T16:58:05.478Z,48947.81
2023-03-29T17:00:33.165Z,48902.75
2023-03-29T17:03:02.600Z,48926.25
2023-03-29T17:05:29.229Z,48934.09
2023-03-29T17:07:56.207Z,48938.03
2023-03-29T17:10:23.305Z,48930.19
2023-03-29T17:12:49.805Z,48918.44
2023-03-29T17:15:17.274Z,48930.19
2023-03-29T17:17:43.677Z,48920.38
2023-03-29T17:20:12.220Z,48894.91
2023-03-29T17:22:40.272Z,48918.44
2023-03-29T17:25:07.999Z,48930.19
2023-03-29T17:27:35.638Z,48910.59
2023-03-29T17:30:02.118Z,48941.94
2023-03-29T17:32:28.604Z,48928.22
2023-03-29T17:34:55.231Z,48981.13
2023-03-29T17:37:22.798Z,48941.94
2023-03-29T17:39:49.265Z,48926.25
2023-03-29T17:42:17.192Z,48941.94
2023-03-29T17:44:43.634Z,48902.75
2023-03-29T17:47:10.111Z,48949.78
2023-03-29T17:49:36.529Z,48938.03
2023-03-29T17:52:04.371Z,48906.69
2023-03-29T17:54:31.119Z,48963.50
2023-03-29T17:56:57.826Z,48961.53
2023-03-29T17:59:25.723Z,48963.50
2023-03-29T18:01:52.157Z,48961.53
2023-03-29T18:04:18.541Z,48969.38
2023-03-29T18:06:45.649Z,49004.63
2023-03-29T18:09:13.087Z,48969.38
2023-03-29T18:11:39.472Z,48953.69
2023-03-29T18:14:05.965Z,48941.94
2023-03-29T18:16:32.474Z,48988.94
2023-03-29T18:18:58.997Z,48975.25
2023-03-29T18:21:26.247Z,48988.94
2023-03-29T18:23:55.523Z,48981.13
2023-03-29T18:26:23.408Z,48965.44
2023-03-29T18:28:50.713Z,48981.13
2023-03-29T18:31:19.577Z,48990.91
2023-03-29T18:33:46.806Z,48981.13
2023-03-29T18:36:13.841Z,48973.28
2023-03-29T18:38:43.067Z,48973.28
2023-03-29T18:41:12.273Z,49002.66
2023-03-29T18:43:40.704Z,48996.78
2023-03-29T18:46:08.288Z,49010.50
2023-03-29T18:48:41.877Z,48977.19
2023-03-29T18:51:10.846Z,48988.94
2023-03-29T18:53:41.076Z,49008.53
2023-03-29T18:56:08.007Z,49035.97
2023-03-29T18:58:34.728Z,48985.03
2023-03-29T19:01:05.130Z,48981.13
2023-03-29T19:03:35.014Z,49020.31
2023-03-29T19:06:02.982Z,49018.34
2023-03-29T19:08:29.723Z,48988.94
2023-03-29T19:11:04.728Z,48969.38
2023-03-29T19:13:31.613Z,49006.59
2023-03-29T19:15:58.121Z,49035.97
2023-03-29T19:18:25.487Z,49016.38
2023-03-29T19:20:54.037Z,49010.50
2023-03-29T19:23:22.213Z,49018.34
2023-03-29T19:25:53.787Z,49063.41
2023-03-29T19:28:20.621Z,49035.97
2023-03-29T19:30:47.384Z,49041.84
2023-03-29T19:33:14.534Z,49037.94
2023-03-29T19:35:41.481Z,49037.94
2023-03-29T19:38:08.083Z,49006.59
2023-03-29T19:40:35.104Z,49032.06
2023-03-29T19:43:01.507Z,49020.31
2023-03-29T19:45:28.329Z,49024.22
2023-03-29T19:47:55.555Z,49012.47
2023-03-29T19:50:23.136Z,49016.38
2023-03-29T19:52:49.877Z,49032.06
2023-03-29T19:55:16.538Z,49037.94
2023-03-29T19:57:43.286Z,49010.50
2023-03-29T20:00:14.805Z,49022.25
2023-03-29T20:02:42.550Z,49037.94
2023-03-29T20:05:09.422Z,49039.88
2023-03-29T20:07:36.442Z,49028.13
2023-03-29T20:10:03.048Z,49008.53
2023-03-29T20:12:29.429Z,49020.31
2023-03-29T20:14:55.852Z,49018.34
2023-03-29T20:17:22.244Z,49039.88
2023-03-29T20:19:48.654Z,49030.09
2023-03-29T20:22:15.026Z,49016.38
2023-03-29T20:24:41.442Z,49008.53
2023-03-29T20:27:08.597Z,49030.09
2023-03-29T20:29:35.500Z,49022.25
2023-03-29T20:32:02.152Z,49010.50
2023-03-29T20:34:29.190Z,49020.31
2023-03-29T20:37:00.587Z,48988.94
2023-03-29T20:39:28.308Z,49020.31
2023-03-29T20:41:54.746Z,49008.53
2023-03-29T20:44:26.409Z,49035.97
2023-03-29T20:47:06.616Z,49020.31
2023-03-29T20:49:39.109Z,49016.38
2023-03-29T20:52:10.628Z,49035.97
2023-03-29T20:54:37.321Z,49035.97
2023-03-29T20:57:05.071Z,49024.22
2023-03-29T20:59:31.536Z,49020.31
2023-03-29T21:02:00.058Z,49020.31
2023-03-29T21:04:28.230Z,49006.59
2023-03-29T21:06:56.068Z,49012.47
2023-03-29T21:09:23.820Z,49004.63
2023-03-29T21:11:50.734Z,49020.31
2023-03-29T21:14:22.985Z,49004.63
2023-03-29T21:16:50.204Z,49016.38
2023-03-29T21:19:16.908Z,48992.88
2023-03-29T21:21:44.920Z,49026.19
2023-03-29T21:24:13.704Z,49016.38
2023-03-29T21:26:41.278Z,49012.47
2023-03-29T21:29:08.018Z,49008.53
2023-03-29T21:31:34.918Z,49010.50
2023-03-29T21:34:01.375Z,49004.63
2023-03-29T21:36:28.007Z,49008.53
2023-03-29T21:38:54.683Z,49000.72
2023-03-29T21:41:21.865Z,48987.00
2023-03-29T21:43:48.323Z,48992.88
2023-03-29T21:46:15.164Z,48985.03
2023-03-29T21:48:41.829Z,48983.06
2023-03-29T21:51:08.716Z,49008.53
2023-03-29T21:53:35.290Z,49008.53
2023-03-29T21:56:01.692Z,49012.47
2023-03-29T21:58:28.083Z,48979.16
2023-03-29T22:00:56.162Z,48992.88
2023-03-29T22:03:23.043Z,48988.94
2023-03-29T22:06:01.742Z,48992.88
2023-03-29T22:08:28.905Z,48992.88
2023-03-29T22:10:57.007Z,49004.63
2023-03-29T22:13:25.288Z,49008.53
2023-03-29T22:15:59.480Z,48994.84
2023-03-29T22:18:42.282Z,49014.41
2023-03-29T22:21:22.435Z,48996.78
2023-03-29T22:23:50.885Z,48987.00
2023-03-29T22:26:20.000Z,48985.03
2023-03-29T22:28:46.404Z,48977.19
2023-03-29T22:31:19.949Z,48985.03
2023-03-29T22:33:46.638Z,48992.88
2023-03-29T22:36:18.097Z,48977.19
2023-03-29T22:38:46.063Z,48990.91
2023-03-29T22:41:13.748Z,48985.03
2023-03-29T22:43:41.026Z,48985.03
2023-03-29T22:46:09.587Z,48965.44
2023-03-29T22:48:36.303Z,48961.53
2023-03-29T22:51:03.108Z,48987.00
2023-03-29T22:53:30.056Z,48988.94
2023-03-29T22:55:56.490Z,48973.28
2023-03-29T22:58:23.299Z,48979.16
2023-03-29T23:00:49.752Z,48977.19
2023-03-29T23:03:16.869Z,48975.25
2023-03-29T23:05:50.259Z,48981.13
2023-03-29T23:08:17.157Z,48981.13
2023-03-29T23:10:46.111Z,48973.28
2023-03-29T23:13:13.888Z,48981.13
2023-03-29T23:15:47.233Z,48981.13
2023-03-29T23:18:18.469Z,48969.38
2023-03-29T23:20:47.107Z,48994.84
2023-03-29T23:23:15.700Z,48973.28
2023-03-29T23:25:47.444Z,48983.06
2023-03-29T23:28:15.891Z,48981.13
2023-03-29T23:30:42.975Z,48983.06
2023-03-29T23:33:10.510Z,48985.03
2023-03-29T23:35:37.427Z,48961.53
2023-03-29T23:38:05.462Z,48965.44
2023-03-29T23:40:33.149Z,48971.31
2023-03-29T23:42:59.927Z,48961.53
2023-03-29T23:45:27.982Z,48973.28
2023-03-29T23:47:55.220Z,48961.53
2023-03-29T23:50:22.584Z,48965.44
2023-03-29T23:52:51.770Z,48967.41
2023-03-29T23:55:18.617Z,48965.44
2023-03-29T23:57:45.044Z,48969.38
